createdAt,value
2023-01-04T00:01:57.993Z,67.79
2023-01-04T00:07:00.049Z,67.08
2023-01-04T00:12:02.143Z,66.88
2023-01-04T00:17:04.219Z,68.29
2023-01-04T00:22:06.357Z,68.23
2023-01-04T00:27:08.402Z,67.46
2023-01-04T00:32:28.891Z,67.09
2023-01-04T00:37:31.787Z,65.84
2023-01-04T00:42:33.773Z,63.44
2023-01-04T00:47:36.037Z,64.24
2023-01-04T00:52:38.067Z,63.21
2023-01-04T00:57:40.127Z,63.97
2023-01-04T01:02:42.330Z,64.20
2023-01-04T01:07:44.486Z,64.71
2023-01-04T01:12:46.538Z,65.23
2023-01-04T01:17:48.677Z,64.55
2023-01-04T01:22:50.746Z,64.55
2023-01-04T01:27:52.856Z,64.93
2023-01-04T01:32:55.018Z,64.96
2023-01-04T01:37:57.543Z,63.90
2023-01-04T01:42:59.981Z,63.99
2023-01-04T01:48:07.418Z,63.68
2023-01-04T01:53:11.314Z,63.58
2023-01-04T01:58:22.221Z,64.35
2023-01-04T02:03:30.357Z,63.07
2023-01-04T02:08:33.046Z,63.61
2023-01-04T02:13:56.228Z,63.39
2023-01-04T02:19:46.006Z,62.89
2023-01-04T02:25:09.276Z,63.12
2023-01-04T02:30:11.427Z,62.86
2023-01-04T02:35:22.126Z,62.75
2023-01-04T02:40:38.611Z,63.11
2023-01-04T02:45:52.765Z,63.52
2023-01-04T02:50:59.877Z,63.59
2023-01-04T02:56:07.928Z,63.25
2023-01-04T03:01:31.528Z,63.22
2023-01-04T03:06:42.339Z,63.11
2023-01-04T03:12:10.114Z,63.33
2023-01-04T03:17:15.023Z,63.31
2023-01-04T03:22:57.119Z,62.93
2023-01-04T03:28:19.238Z,62.76
2023-01-04T03:33:41.112Z,62.63
2023-01-04T03:39:17.050Z,62.64
2023-01-04T03:44:55.729Z,62.27
2023-01-04T03:50:10.942Z,63.56
2023-01-04T03:55:15.341Z,63.27
2023-01-04T04:00:19.305Z,63.13
2023-01-04T04:05:42.999Z,63.54
2023-01-04T04:10:45.044Z,63.48
2023-01-04T04:15:47.881Z,63.55
2023-01-04T04:20:58.089Z,63.53
2023-01-04T04:26:00.485Z,63.14
2023-01-04T04:31:02.963Z,62.99
2023-01-04T04:36:05.977Z,63.06
2023-01-04T04:41:32.119Z,62.95
2023-01-04T04:46:34.498Z,62.87
2023-01-04T04:51:37.909Z,62.96
2023-01-04T04:56:40.096Z,62.68
2023-01-04T05:01:42.376Z,62.68
2023-01-04T05:06:46.269Z,61.94
2023-01-04T05:12:07.013Z,62.55
2023-01-04T05:17:09.233Z,62.05
2023-01-04T05:22:11.308Z,61.47
2023-01-04T05:27:13.392Z,61.75
2023-01-04T05:32:15.544Z,61.66
2023-01-04T05:37:17.683Z,61.25
2023-01-04T05:42:25.927Z,61.40
2023-01-04T05:47:29.100Z,60.58
2023-01-04T05:52:31.400Z,60.58
2023-01-04T05:57:33.509Z,61.12
2023-01-04T06:02:36.166Z,62.26
2023-01-04T06:07:40.139Z,63.34
2023-01-04T06:12:42.555Z,62.81
2023-01-04T06:17:44.631Z,62.33
2023-01-04T06:22:46.798Z,62.25
2023-01-04T06:27:48.849Z,62.24
2023-01-04T06:32:50.888Z,62.41
2023-01-04T06:37:52.960Z,62.29
2023-01-04T06:42:54.998Z,61.75
2023-01-04T06:47:57.049Z,60.95
2023-01-04T06:52:59.127Z,60.48
2023-01-04T06:58:01.370Z,61.03
2023-01-04T07:03:14.783Z,60.73
2023-01-04T07:08:17.928Z,61.02
2023-01-04T07:13:20.002Z,61.14
2023-01-04T07:18:22.605Z,61.22
2023-01-04T07:23:24.784Z,60.21
2023-01-04T07:28:45.366Z,60.65
2023-01-04T07:33:50.906Z,59.90
2023-01-04T07:38:53.018Z,60.51
2023-01-04T07:43:55.098Z,60.80
2023-01-04T07:48:57.211Z,60.77
2023-01-04T07:54:00.170Z,60.46
2023-01-04T07:59:02.332Z,60.41
2023-01-04T08:04:06.284Z,61.26
2023-01-04T08:09:09.173Z,60.54
2023-01-04T08:14:11.854Z,60.07
2023-01-04T08:19:20.581Z,59.62
2023-01-04T08:24:22.641Z,58.86
2023-01-04T08:29:28.213Z,59.00
2023-01-04T08:34:34.941Z,58.48
2023-01-04T08:39:37.140Z,59.36
2023-01-04T08:44:39.345Z,59.40
2023-01-04T08:49:41.412Z,59.30
2023-01-04T08:54:43.480Z,58.71
2023-01-04T08:59:45.626Z,59.27
2023-01-04T09:04:48.155Z,59.03
2023-01-04T09:09:50.329Z,58.43
2023-01-04T09:14:52.390Z,58.60
2023-01-04T09:19:54.477Z,58.20
2023-01-04T09:24:56.687Z,58.46
2023-01-04T09:29:58.735Z,58.42
2023-01-04T09:35:00.806Z,58.30
2023-01-04T09:40:03.307Z,58.06
2023-01-04T09:45:27.420Z,58.18
2023-01-04T09:50:34.613Z,57.99
2023-01-04T09:55:45.883Z,57.52
2023-01-04T10:01:06.857Z,57.49
2023-01-04T10:06:13.257Z,57.81
2023-01-04T10:11:37.152Z,57.64
2023-01-04T10:17:28.122Z,57.94
2023-01-04T10:22:27.642Z,57.90
2023-01-04T10:27:52.607Z,57.47
2023-01-04T10:33:11.032Z,57.27
2023-01-04T10:38:22.870Z,56.66
2023-01-04T10:43:24.884Z,58.31
2023-01-04T10:48:26.736Z,58.62
2023-01-04T10:53:46.828Z,55.85
2023-01-04T10:59:17.047Z,55.74
2023-01-04T11:04:33.577Z,55.06
2023-01-04T11:09:52.819Z,55.07
2023-01-04T11:14:54.995Z,54.89
2023-01-04T11:19:57.087Z,55.31
2023-01-04T11:30:48.582Z,56.05
2023-01-04T11:35:57.123Z,55.66
2023-01-04T11:41:06.937Z,55.97
2023-01-04T11:46:18.034Z,55.98
2023-01-04T11:51:29.761Z,55.82
2023-01-04T11:56:36.529Z,56.79
2023-01-04T12:01:40.895Z,56.23
2023-01-04T12:06:52.769Z,55.69
2023-01-04T12:12:00.796Z,56.32
2023-01-04T12:17:14.285Z,55.91
2023-01-04T12:22:34.433Z,56.79
2023-01-04T12:27:36.752Z,56.63
2023-01-04T12:32:40.431Z,57.01
2023-01-04T12:37:46.160Z,57.00
2023-01-04T12:43:15.865Z,58.56
2023-01-04T12:48:48.434Z,58.28
2023-01-04T12:54:14.367Z,58.12
2023-01-04T12:59:33.070Z,58.37
2023-01-04T13:04:41.758Z,58.85
2023-01-04T13:09:51.479Z,58.61
2023-01-04T13:15:02.797Z,59.15
2023-01-04T13:20:18.334Z,59.51
2023-01-04T13:25:22.836Z,59.55
2023-01-04T13:30:38.189Z,59.94
2023-01-04T13:35:40.341Z,59.72
2023-01-04T13:40:49.238Z,60.20
2023-01-04T13:46:06.222Z,59.74
2023-01-04T13:51:37.900Z,59.51
2023-01-04T13:56:40.491Z,59.94
2023-01-04T14:01:49.201Z,59.78
2023-01-04T14:06:53.037Z,59.58
2023-01-04T14:12:09.149Z,59.81
2023-01-04T14:17:34.930Z,60.35
2023-01-04T14:22:51.319Z,59.65
2023-01-04T14:27:53.862Z,59.63
2023-01-04T14:32:59.533Z,59.46
2023-01-04T14:38:11.134Z,60.00
2023-01-04T14:43:36.663Z,59.88
2023-01-04T14:48:38.854Z,59.62
2023-01-04T14:53:42.021Z,59.91
2023-01-04T14:58:44.912Z,59.72
2023-01-04T15:03:47.039Z,59.42
2023-01-04T15:08:49.784Z,59.42
2023-01-04T15:13:51.938Z,59.35
2023-01-04T15:18:54.014Z,59.43
2023-01-04T15:23:56.054Z,59.72
2023-01-04T15:28:58.183Z,60.05
2023-01-04T15:34:00.276Z,60.58
2023-01-04T15:39:02.388Z,61.44
2023-01-04T15:44:05.004Z,61.72
2023-01-04T15:49:09.400Z,61.10
2023-01-04T15:54:14.293Z,62.17
2023-01-04T15:59:16.577Z,61.51
2023-01-04T16:04:18.650Z,62.36
2023-01-04T16:09:20.966Z,62.40
2023-01-04T16:14:23.063Z,62.33
2023-01-04T16:19:25.204Z,62.11
2023-01-04T16:25:08.604Z,62.88
2023-01-04T16:29:53.154Z,63.59
2023-01-04T16:34:55.272Z,63.46
2023-01-04T16:40:06.240Z,64.34
2023-01-04T16:45:09.662Z,62.40
2023-01-04T16:50:12.643Z,65.01
2023-01-04T16:55:18.599Z,65.49
2023-01-04T17:00:25.612Z,65.58
2023-01-04T17:05:27.754Z,65.31
2023-01-04T17:10:29.988Z,65.12
2023-01-04T17:15:47.604Z,65.66
2023-01-04T17:21:16.740Z,64.77
2023-01-04T17:26:25.028Z,65.48
2023-01-04T17:31:33.483Z,66.08
2023-01-04T17:36:37.035Z,66.35
2023-01-04T17:41:39.572Z,65.78
2023-01-04T17:46:41.690Z,66.45
2023-01-04T17:51:43.747Z,66.28
2023-01-04T17:56:45.791Z,66.51
2023-01-04T18:01:47.916Z,66.16
2023-01-04T18:06:50.133Z,66.20
2023-01-04T18:11:52.348Z,66.44
2023-01-04T18:16:58.188Z,66.59
2023-01-04T18:22:00.678Z,67.37
2023-01-04T18:27:21.085Z,66.99
2023-01-04T18:32:25.247Z,65.32
2023-01-04T18:37:27.314Z,66.43
2023-01-04T18:42:30.541Z,67.39
2023-01-04T18:47:32.897Z,67.63
2023-01-04T18:52:35.715Z,67.21
2023-01-04T18:57:38.518Z,67.72
2023-01-04T19:02:40.850Z,67.66
2023-01-04T19:07:43.202Z,68.02
2023-01-04T19:12:45.402Z,67.02
2023-01-04T19:17:47.477Z,67.47
2023-01-04T19:22:49.585Z,67.50
2023-01-04T19:27:51.635Z,66.90
2023-01-04T19:32:53.828Z,67.79
2023-01-04T19:37:56.309Z,66.84
2023-01-04T19:42:58.938Z,67.17
2023-01-04T19:48:01.002Z,67.23
2023-01-04T19:53:03.273Z,67.32
2023-01-04T19:58:05.398Z,67.63
2023-01-04T20:03:07.677Z,67.67
2023-01-04T20:08:09.947Z,67.94
2023-01-04T20:13:12.081Z,68.03
2023-01-04T20:18:14.591Z,68.02
2023-01-04T20:23:17.111Z,67.58
2023-01-04T20:28:22.370Z,67.54
2023-01-04T20:33:24.447Z,67.29
2023-01-04T20:38:26.545Z,67.80
2023-01-04T20:43:34.554Z,68.03
2023-01-04T20:48:36.721Z,67.73
2023-01-04T20:53:39.282Z,67.80
2023-01-04T20:58:42.294Z,67.50
2023-01-04T21:03:44.623Z,67.28
2023-01-04T21:08:47.146Z,66.90
2023-01-04T21:13:50.903Z,66.89
2023-01-04T21:18:53.097Z,66.77
2023-01-04T21:23:58.045Z,66.07
2023-01-04T21:29:00.293Z,66.06
2023-01-04T21:34:05.461Z,66.39
2023-01-04T21:39:10.098Z,66.70
2023-01-04T21:44:12.165Z,66.50
2023-01-04T21:49:14.347Z,66.72
2023-01-04T21:54:16.565Z,66.27
2023-01-04T21:59:18.685Z,66.46
2023-01-04T22:04:20.803Z,65.89
2023-01-04T22:09:23.120Z,65.79
2023-01-04T22:14:25.272Z,64.72
2023-01-04T22:19:27.507Z,64.69
2023-01-04T22:24:34.072Z,64.40
2023-01-04T22:29:39.735Z,64.84
2023-01-04T22:34:41.817Z,64.77
2023-01-04T22:39:43.880Z,65.25
2023-01-04T22:44:46.680Z,66.37
2023-01-04T22:49:48.739Z,66.72
2023-01-04T22:54:50.937Z,67.17
2023-01-04T22:59:53.168Z,66.89
2023-01-04T23:04:55.319Z,67.16
2023-01-04T23:09:57.625Z,67.08
2023-01-04T23:15:00.397Z,66.60
2023-01-04T23:20:06.574Z,66.50
2023-01-04T23:25:12.229Z,66.40
2023-01-04T23:30:15.424Z,66.59
2023-01-04T23:35:17.602Z,66.36
2023-01-04T23:40:19.654Z,66.00
2023-01-04T23:45:21.729Z,65.65
2023-01-04T23:50:23.856Z,64.62
2023-01-04T23:55:25.854Z,64.68
